CMA CGM Volga — 5BJR2 — position and weather

sailwx.info

Track history (hours):
 
Tides and Currents Weather Stations Pressure Air Temp Water Temp Dewpoint Dewpoint Depression Visibility Wind Speed Wind Dir Waves Ship Positions

CMA CGM Volga

Last reported at 2015-Mar-03 20:23 UTC. Time now 2015-Mar-04 04:26 UTC.
Position N 54°39' E 019°47'.

Length 184 m; draft 8.1 m.

Type: Ship (hazmat cat A). MMSI: 212456000.

Date/timePositionNaut miles runAvg speedWind from/ knotsBaromVisibWave heightAir tempDewpointWater temp
2015-Mar-03 20:23N 54°39' E 019°47'0 0.0
2015-Mar-03 19:32N 54°39' E 019°47'0 0.0
2015-Mar-03 17:30N 54°39' E 019°47'0 0.0
2015-Mar-03 16:32N 54°39' E 019°47'2 2.3
2015-Mar-03 15:31N 54°40' E 019°44'1111.0
2015-Mar-03 14:33N 54°42' E 019°26'1313.0
2015-Mar-03 13:33N 54°36' E 019°07'1212.1
2015-Mar-03 12:34N 54°26' E 018°55'7 7.3
2015-Mar-03 11:33N 54°23' E 018°43'0 0.0
2015-Mar-03 10:31N 54°23' E 018°43'0 0.0
2015-Mar-03 09:31N 54°23' E 018°43'0 0.0
2015-Mar-03 08:31N 54°23' E 018°43'0 0.0
2015-Mar-03 07:29N 54°23' E 018°43'0 0.0
2015-Mar-03 06:32N 54°23' E 018°43'0 0.0
2015-Mar-03 05:32N 54°23' E 018°43'0 0.0
2015-Mar-03 04:32N 54°23' E 018°43'0 0.0
2015-Mar-03 03:32N 54°23' E 018°43'0 0.0
2015-Mar-03 02:32N 54°23' E 018°43'0 0.0
2015-Mar-03 01:32N 54°23' E 018°43'0 0.0
2015-Mar-03 00:32N 54°23' E 018°43'0 0.0
2015-Mar-02 23:32N 54°23' E 018°43'0 0.0
2015-Mar-02 22:32N 54°23' E 018°43'0 0.0
2015-Mar-02 21:32N 54°23' E 018°43'0 0.0
2015-Mar-02 20:32N 54°23' E 018°43'0 0.0
2015-Mar-02 19:32N 54°23' E 018°43'0 0.0
2015-Mar-02 18:33N 54°23' E 018°43'0 0.0
2015-Mar-02 17:32N 54°23' E 018°43'0 0.0
2015-Mar-02 16:32N 54°23' E 018°43'0 0.0
2015-Mar-02 15:32N 54°23' E 018°43'0 0.0
2015-Mar-02 14:32N 54°23' E 018°43'0 0.0
2015-Mar-02 13:32N 54°23' E 018°43'0 0.0
2015-Mar-02 12:32N 54°23' E 018°43'0 0.0
2015-Mar-02 11:33N 54°23' E 018°43'0 0.0
2015-Mar-02 10:30N 54°23' E 018°43'0 0.0
2015-Mar-02 09:33N 54°23' E 018°43'0 0.0
2015-Mar-02 08:33N 54°23' E 018°43'0 0.0
2015-Mar-02 07:33N 54°23' E 018°43'6 5.9
2015-Mar-02 06:33N 54°27' E 018°51'1 1.1
2015-Mar-02 05:32N 54°28' E 018°50'0 0.0
2015-Mar-02 04:29N 54°28' E 018°50'0 0.0
2015-Mar-02 03:32N 54°28' E 018°50'0 0.0
2015-Mar-02 02:32N 54°28' E 018°50'0 0.0
2015-Mar-02 01:32N 54°28' E 018°50'0 0.0
2015-Mar-02 00:32N 54°28' E 018°50'0 0.0
2015-Mar-01 23:32N 54°28' E 018°50'0 0.0
2015-Mar-01 22:29N 54°28' E 018°50'0 0.2
2015-Mar-01 21:32N 54°27' E 018°50'5 5.5
2015-Mar-01 20:33N 54°30' E 018°59'1212.2
2015-Mar-01 19:33N 54°42' E 019°03'1212.5
2015-Mar-01 18:34N 54°54' E 019°11'1212.2
2015-Mar-01 17:33N 55°05' E 019°18'  
2015-Feb-27 06:32N 59°39' E 023°29'1712.9
2015-Feb-27 05:14N 59°43' E 024°01'1012.9
2015-Feb-27 04:27N 59°45' E 024°21'1112.1
2015-Feb-27 03:33N 59°41' E 024°41'11 0.3
2015-Feb-25 17:33N 59°33' E 024°55'1111.1
2015-Feb-25 16:33N 59°41' E 024°40'1211.3
2015-Feb-25 15:32N 59°43' E 024°17'33311.5
2015-Feb-24 10:31N 54°52' E 019°15'1313.6
2015-Feb-24 09:33N 54°40' E 019°09'1413.7
2015-Feb-24 08:33N 54°27' E 018°59'1010.2
2015-Feb-24 07:33N 54°23' E 018°43'0 0.2
2015-Feb-24 06:31N 54°23' E 018°43'0 0.0
2015-Feb-24 05:31N 54°23' E 018°43'0 0.0
2015-Feb-24 04:32N 54°23' E 018°43'0 0.0
2015-Feb-24 03:33N 54°23' E 018°43'0 0.0
2015-Feb-24 02:33N 54°23' E 018°43'0 0.0
2015-Feb-24 01:30N 54°23' E 018°43'0 0.0
2015-Feb-24 00:33N 54°23' E 018°43'0 0.0
2015-Feb-23 23:33N 54°23' E 018°43'0 0.0
2015-Feb-23 22:33N 54°23' E 018°43'0 0.0
2015-Feb-23 21:33N 54°23' E 018°43'0 0.0
2015-Feb-23 20:33N 54°23' E 018°43'0 0.0
2015-Feb-23 19:30N 54°23' E 018°43'0 0.0
2015-Feb-23 18:33N 54°23' E 018°43'0 0.0
2015-Feb-23 17:33N 54°23' E 018°43'0 0.0
2015-Feb-23 16:27N 54°23' E 018°43'0 0.0
2015-Feb-23 15:33N 54°23' E 018°43'0 0.0
2015-Feb-23 14:33N 54°23' E 018°43'0 0.0
2015-Feb-23 13:33N 54°23' E 018°43'0 0.0
2015-Feb-23 12:33N 54°23' E 018°43'0 0.0
2015-Feb-23 11:33N 54°23' E 018°43'0 0.0
2015-Feb-23 10:33N 54°23' E 018°43'0 0.0
2015-Feb-23 09:33N 54°23' E 018°43'0 0.0
2015-Feb-23 08:33N 54°23' E 018°43'0 0.0
2015-Feb-23 07:33N 54°23' E 018°43'0 0.0
2015-Feb-23 06:33N 54°23' E 018°43'0 0.0
2015-Feb-23 05:31N 54°23' E 018°43'0 0.0
2015-Feb-23 04:31N 54°23' E 018°43'0 0.0
2015-Feb-23 03:31N 54°23' E 018°43'0 0.0
2015-Feb-23 02:33N 54°23' E 018°43'0 0.0
2015-Feb-23 01:30N 54°23' E 018°43'0 0.3
2015-Feb-23 00:33N 54°23' E 018°43'8 8.4
2015-Feb-22 23:33N 54°27' E 018°56'1211.7
2015-Feb-22 22:33N 54°38' E 019°04'1313.0
2015-Feb-22 21:33N 54°51' E 019°09'  
Track history (hours):
 
Tides and Currents Weather Stations Pressure Air Temp Water Temp Dewpoint Dewpoint Depression Visibility Wind Speed Wind Dir Waves Ship Positions

CMA CGM Volga

Last reported at 2015-Mar-03 20:23 UTC. Time now 2015-Mar-04 04:26 UTC.
Position N 54°39' E 019°47'.

Length 184 m; draft 8.1 m.

Type: Ship (hazmat cat A). MMSI: 212456000.

Date/timePositionNaut miles runAvg speedWind from/ knotsBaromVisibWave heightAir tempDewpointWater temp
2015-Mar-03 20:23N 54°39' E 019°47'0 0.0
2015-Mar-03 19:32N 54°39' E 019°47'0 0.0
2015-Mar-03 17:30N 54°39' E 019°47'0 0.0
2015-Mar-03 16:32N 54°39' E 019°47'2 2.3
2015-Mar-03 15:31N 54°40' E 019°44'1111.0
2015-Mar-03 14:33N 54°42' E 019°26'1313.0
2015-Mar-03 13:33N 54°36' E 019°07'1212.1
2015-Mar-03 12:34N 54°26' E 018°55'7 7.3
2015-Mar-03 11:33N 54°23' E 018°43'0 0.0
2015-Mar-03 10:31N 54°23' E 018°43'0 0.0
2015-Mar-03 09:31N 54°23' E 018°43'0 0.0
2015-Mar-03 08:31N 54°23' E 018°43'0 0.0
2015-Mar-03 07:29N 54°23' E 018°43'0 0.0
2015-Mar-03 06:32N 54°23' E 018°43'0 0.0
2015-Mar-03 05:32N 54°23' E 018°43'0 0.0
2015-Mar-03 04:32N 54°23' E 018°43'0 0.0
2015-Mar-03 03:32N 54°23' E 018°43'0 0.0
2015-Mar-03 02:32N 54°23' E 018°43'0 0.0
2015-Mar-03 01:32N 54°23' E 018°43'0 0.0
2015-Mar-03 00:32N 54°23' E 018°43'0 0.0
2015-Mar-02 23:32N 54°23' E 018°43'0 0.0
2015-Mar-02 22:32N 54°23' E 018°43'0 0.0
2015-Mar-02 21:32N 54°23' E 018°43'0 0.0
2015-Mar-02 20:32N 54°23' E 018°43'0 0.0
2015-Mar-02 19:32N 54°23' E 018°43'0 0.0
2015-Mar-02 18:33N 54°23' E 018°43'0 0.0
2015-Mar-02 17:32N 54°23' E 018°43'0 0.0
2015-Mar-02 16:32N 54°23' E 018°43'0 0.0
2015-Mar-02 15:32N 54°23' E 018°43'0 0.0
2015-Mar-02 14:32N 54°23' E 018°43'0 0.0
2015-Mar-02 13:32N 54°23' E 018°43'0 0.0
2015-Mar-02 12:32N 54°23' E 018°43'0 0.0
2015-Mar-02 11:33N 54°23' E 018°43'0 0.0
2015-Mar-02 10:30N 54°23' E 018°43'0 0.0
2015-Mar-02 09:33N 54°23' E 018°43'0 0.0
2015-Mar-02 08:33N 54°23' E 018°43'0 0.0
2015-Mar-02 07:33N 54°23' E 018°43'6 5.9
2015-Mar-02 06:33N 54°27' E 018°51'1 1.1
2015-Mar-02 05:32N 54°28' E 018°50'0 0.0
2015-Mar-02 04:29N 54°28' E 018°50'0 0.0
2015-Mar-02 03:32N 54°28' E 018°50'0 0.0
2015-Mar-02 02:32N 54°28' E 018°50'0 0.0
2015-Mar-02 01:32N 54°28' E 018°50'0 0.0
2015-Mar-02 00:32N 54°28' E 018°50'0 0.0
2015-Mar-01 23:32N 54°28' E 018°50'0 0.0
2015-Mar-01 22:29N 54°28' E 018°50'0 0.2
2015-Mar-01 21:32N 54°27' E 018°50'5 5.5
2015-Mar-01 20:33N 54°30' E 018°59'1212.2
2015-Mar-01 19:33N 54°42' E 019°03'1212.5
2015-Mar-01 18:34N 54°54' E 019°11'1212.2
2015-Mar-01 17:33N 55°05' E 019°18'  
2015-Feb-27 06:32N 59°39' E 023°29'1712.9
2015-Feb-27 05:14N 59°43' E 024°01'1012.9
2015-Feb-27 04:27N 59°45' E 024°21'1112.1
2015-Feb-27 03:33N 59°41' E 024°41'11 0.3
2015-Feb-25 17:33N 59°33' E 024°55'1111.1
2015-Feb-25 16:33N 59°41' E 024°40'1211.3
2015-Feb-25 15:32N 59°43' E 024°17'33311.5
2015-Feb-24 10:31N 54°52' E 019°15'1313.6
2015-Feb-24 09:33N 54°40' E 019°09'1413.7
2015-Feb-24 08:33N 54°27' E 018°59'1010.2
2015-Feb-24 07:33N 54°23' E 018°43'0 0.2
2015-Feb-24 06:31N 54°23' E 018°43'0 0.0
2015-Feb-24 05:31N 54°23' E 018°43'0 0.0
2015-Feb-24 04:32N 54°23' E 018°43'0 0.0
2015-Feb-24 03:33N 54°23' E 018°43'0 0.0
2015-Feb-24 02:33N 54°23' E 018°43'0 0.0
2015-Feb-24 01:30N 54°23' E 018°43'0 0.0
2015-Feb-24 00:33N 54°23' E 018°43'0 0.0
2015-Feb-23 23:33N 54°23' E 018°43'0 0.0
2015-Feb-23 22:33N 54°23' E 018°43'0 0.0
2015-Feb-23 21:33N 54°23' E 018°43'0 0.0
2015-Feb-23 20:33N 54°23' E 018°43'0 0.0
2015-Feb-23 19:30N 54°23' E 018°43'0 0.0
2015-Feb-23 18:33N 54°23' E 018°43'0 0.0
2015-Feb-23 17:33N 54°23' E 018°43'0 0.0
2015-Feb-23 16:27N 54°23' E 018°43'0 0.0
2015-Feb-23 15:33N 54°23' E 018°43'0 0.0
2015-Feb-23 14:33N 54°23' E 018°43'0 0.0
2015-Feb-23 13:33N 54°23' E 018°43'0 0.0
2015-Feb-23 12:33N 54°23' E 018°43'0 0.0
2015-Feb-23 11:33N 54°23' E 018°43'0 0.0
2015-Feb-23 10:33N 54°23' E 018°43'0 0.0
2015-Feb-23 09:33N 54°23' E 018°43'0 0.0
2015-Feb-23 08:33N 54°23' E 018°43'0 0.0
2015-Feb-23 07:33N 54°23' E 018°43'0 0.0
2015-Feb-23 06:33N 54°23' E 018°43'0 0.0
2015-Feb-23 05:31N 54°23' E 018°43'0 0.0
2015-Feb-23 04:31N 54°23' E 018°43'0 0.0
2015-Feb-23 03:31N 54°23' E 018°43'0 0.0
2015-Feb-23 02:33N 54°23' E 018°43'0 0.0
2015-Feb-23 01:30N 54°23' E 018°43'0 0.3
2015-Feb-23 00:33N 54°23' E 018°43'8 8.4
2015-Feb-22 23:33N 54°27' E 018°56'1211.7
2015-Feb-22 22:33N 54°38' E 019°04'1313.0
2015-Feb-22 21:33N 54°51' E 019°09'  

Dump ship's entire track history